logo dgac
Lunes 20 de Septiembre del 2021
Buscar por aerodromo o helipuerto
Ingrese nombre de aeródromo, localidad o designador OACI:
TAF: TAF SCQP 200440Z 2006/2106 VRB02KT CAVOK TN00/2007Z TX17/2019Z TEMPO 2006/2011 2000 BR BECMG 2013/2015 21010KT
TAF del 20/09/2021 a las 04:40 UTC
Para mayor información visite www.meteochile.cl
Período de validez: desde el 20 a las 06:00 UTC hasta el 21 a las 06:00 UTC
Viento: dirección variable, velocidad 2 nudos
Visibilidad: 10 km o más,
    sin nubes bajo los 5.000 pies o bajo del MSA (Mínimo de Seguridad del Aeródromo),
    sin cumulonimbus, y sin fenómenos de tiempo significativo en el aeródromo o alrededores
Temperatura mínima: 0ºC el 20 a las 07:00 UTC
Temperatura máxima: 17ºC el 20 a las 19:00 UTC
Se espera en forma temporal entre las 06:00 UTC del 20 y las 11:00 UTC del 20:
Visibilidad: 2000 metros
Neblina
Se espera un cambio entre las 13:00 UTC del 20 y las 15:00 UTC del 20, :
Viento: dirección 210 grados, velocidad 10 nudos